Bookmark and Share
Track history (hours):
 

Grenadines III

Last reported at 2013-Sep-24 17:26 UTC. Time now 2014-Apr-23 07:17 UTC.
Position N 43°08' E 005°45'.
Warning: this ship's position is months out of date.

Type: Pilot. MMSI: 225910870.

NotesDate/timePositionNaut miles runAvg speedWind from/ knotsBaromVisibWave heightAir tempDewpointWater temp
2013-Sep-24 17:26N 43°08' E 005°45'0 0.0
2013-Sep-24 15:32N 43°08' E 005°45'0 0.0
2013-Sep-24 14:29N 43°08' E 005°45'0 0.0
2013-Sep-24 05:23N 43°08' E 005°45'0 0.0
2013-Sep-24 03:29N 43°08' E 005°45'0 0.0
2013-Sep-24 00:26N 43°08' E 005°45'0 0.0
2013-Sep-23 23:14N 43°08' E 005°45'0 0.0
2013-Sep-23 12:11N 43°08' E 005°45'0 0.0
2013-Sep-23 11:23N 43°08' E 005°45'8 0.4
2013-Sep-22 14:32N 43°02' E 005°53'1413.9
2013-Sep-22 13:30N 43°02' E 006°13'1112.2
2013-Sep-22 12:33N 43°06' E 006°27'1211.8
2013-Sep-22 11:33N 43°11' E 006°41'6 6.1
2013-Sep-22 10:33N 43°16' E 006°37'1 0.9
2013-Sep-22 09:28N 43°17' E 006°36'0 0.0
2013-Sep-22 08:20N 43°17' E 006°36'0 0.0
2013-Sep-22 07:28N 43°17' E 006°36'0 0.0
2013-Sep-22 06:22N 43°17' E 006°36'0 0.0
2013-Sep-22 05:25N 43°17' E 006°36'0 0.0
2013-Sep-22 03:32N 43°17' E 006°36'0 0.0
2013-Sep-22 02:14N 43°17' E 006°36'0 0.0
2013-Sep-22 01:25N 43°17' E 006°36'0 0.0
2013-Sep-22 00:32N 43°17' E 006°36'0 0.0
2013-Sep-21 23:20N 43°17' E 006°36'0 0.0
2013-Sep-21 22:19N 43°17' E 006°36'0 0.0
2013-Sep-21 21:31N 43°17' E 006°36'0 0.0
2013-Sep-21 20:31N 43°17' E 006°36'0 0.0
2013-Sep-21 19:31N 43°17' E 006°36'0 0.0
2013-Sep-21 18:28N 43°17' E 006°36'0 0.0
2013-Sep-21 17:31N 43°17' E 006°36'0 0.0
2013-Sep-21 16:29N 43°17' E 006°36'0 0.0
2013-Sep-21 15:31N 43°17' E 006°36'0 0.0
2013-Sep-21 14:31N 43°17' E 006°36'0 0.0
2013-Sep-21 13:31N 43°17' E 006°36'0 0.0
2013-Sep-21 12:31N 43°17' E 006°36'0 0.0
2013-Sep-21 11:26N 43°17' E 006°36'0 0.0
2013-Sep-21 09:31N 43°17' E 006°36'0 0.0
2013-Sep-21 08:32N 43°17' E 006°36'2 1.2
2013-Sep-21 06:33N 43°17' E 006°39'1111.2
2013-Sep-21 05:33N 43°13' E 006°53'1211.5
2013-Sep-21 04:33N 43°09' E 007°08'1010.3
2013-Sep-21 03:33N 43°05' E 007°21'1010.0
2013-Sep-21 02:33N 43°00' E 007°33'10 9.6
2013-Sep-21 01:33N 42°56' E 007°45'9 9.2
2013-Sep-21 00:33N 42°52' E 007°56'9 9.2
2013-Sep-20 23:33N 42°48' E 008°07'10 9.3
2013-Sep-20 22:26N 42°43' E 008°20'9 9.4
2013-Sep-20 21:29N 42°40' E 008°31'12 9.5
2013-Sep-20 20:12N 42°34' E 008°46'0 0.1
2013-Sep-20 18:05N 42°34' E 008°46'0 0.0
2013-Sep-20 17:26N 42°34' E 008°46'0 0.0
2013-Sep-20 16:11N 42°34' E 008°46'0 0.4
2013-Sep-20 15:20N 42°34' E 008°46'0 0.0
2013-Sep-20 14:33N 42°34' E 008°46'0 0.0
2013-Sep-20 13:33N 42°34' E 008°46'0 0.0
2013-Sep-20 11:33N 42°34' E 008°46'0 0.0
2013-Sep-20 10:33N 42°34' E 008°46'0 0.0
2013-Sep-20 09:33N 42°34' E 008°46'0 0.0
2013-Sep-20 08:33N 42°34' E 008°46'14 9.3
2013-Sep-20 07:04N 42°44' E 008°58'811.2
2013-Sep-20 06:24N 42°50' E 009°05'1011.5
2013-Sep-20 05:33N 42°57' E 009°14'1010.3
2013-Sep-20 04:33N 43°01' E 009°27'3 0.9
2013-Sep-20 01:15N 42°58' E 009°28'0 0.0
2013-Sep-19 15:11N 42°58' E 009°27'  

Dump ship's entire track history

sailing weather and tide predictions

Grenadines III — CRA5628 — position and weather